createdAt,value
2018-01-21T00:00:45.151Z,98991.67
2018-01-21T00:03:14.365Z,98993.77
2018-01-21T00:05:43.576Z,98996.79
2018-01-21T00:08:12.835Z,99014.85
2018-01-21T00:10:42.146Z,99019.03
2018-01-21T00:13:11.394Z,99031.30
2018-01-21T00:15:40.668Z,99038.16
2018-01-21T00:18:09.870Z,99039.92
2018-01-21T00:20:39.123Z,99040.20
2018-01-21T00:23:08.510Z,99047.57
2018-01-21T00:25:38.546Z,99050.37
2018-01-21T00:28:07.741Z,99063.26
2018-01-21T00:30:36.994Z,99069.30
2018-01-21T00:33:06.341Z,99074.30
2018-01-21T00:35:36.571Z,99075.79
2018-01-21T00:38:05.791Z,99079.72
2018-01-21T00:40:35.028Z,99084.38
2018-01-21T00:43:05.019Z,99090.44
2018-01-21T00:45:34.386Z,99096.09
2018-01-21T00:48:04.355Z,99103.20
2018-01-21T00:50:34.337Z,99103.83
2018-01-21T00:53:03.718Z,99102.63
2018-01-21T00:55:33.026Z,99115.78
2018-01-21T00:58:02.242Z,99117.63
2018-01-21T01:00:31.446Z,99123.42
2018-01-21T01:03:00.690Z,99130.16
2018-01-21T01:05:30.057Z,99131.33
2018-01-21T01:07:59.231Z,99141.50
2018-01-21T01:10:28.727Z,99141.04
2018-01-21T01:12:58.678Z,99148.48
2018-01-21T01:15:27.887Z,99155.55
2018-01-21T01:17:57.856Z,99154.41
2018-01-21T01:20:27.054Z,99163.54
2018-01-21T01:22:56.284Z,99170.97
2018-01-21T01:25:25.478Z,99179.51
2018-01-21T01:27:54.748Z,99188.02
2018-01-21T01:30:24.747Z,99197.83
2018-01-21T01:32:53.970Z,99197.94
2018-01-21T01:35:23.203Z,99196.97
2018-01-21T01:37:53.172Z,99203.69
2018-01-21T01:40:22.404Z,99208.45
2018-01-21T01:42:51.595Z,99204.89
2018-01-21T01:45:20.829Z,99211.75
2018-01-21T01:47:50.041Z,99222.34
2018-01-21T01:50:19.343Z,99225.45
2018-01-21T01:52:48.538Z,99235.36
2018-01-21T01:55:17.743Z,99242.75
2018-01-21T01:57:46.950Z,99246.34
2018-01-21T02:00:17.738Z,99250.16
2018-01-21T02:02:47.715Z,99250.92
2018-01-21T02:05:16.953Z,99257.33
2018-01-21T02:07:46.950Z,99257.88
2018-01-21T02:10:16.165Z,99267.13
2018-01-21T02:12:46.153Z,99267.13
2018-01-21T02:15:15.402Z,99271.85
2018-01-21T02:17:44.631Z,99275.79
2018-01-21T02:20:13.883Z,99280.39
2018-01-21T02:22:43.913Z,99281.95
2018-01-21T02:25:13.115Z,99290.88
2018-01-21T02:27:42.334Z,99290.34
2018-01-21T02:30:11.662Z,99296.56
2018-01-21T02:32:40.877Z,99305.42
2018-01-21T02:35:10.858Z,99308.88
2018-01-21T02:37:40.077Z,99306.94
2018-01-21T02:40:10.245Z,99313.78
2018-01-21T02:42:39.455Z,99318.50
2018-01-21T02:45:08.816Z,99319.27
2018-01-21T02:47:38.876Z,99326.23
2018-01-21T02:50:08.278Z,99325.21
2018-01-21T02:52:37.498Z,99327.16
2018-01-21T02:55:06.733Z,99328.99
2018-01-21T02:57:35.960Z,99339.22
2018-01-21T03:00:05.199Z,99345.25
2018-01-21T03:02:34.506Z,99354.20
2018-01-21T03:05:03.682Z,99351.12
2018-01-21T03:07:32.881Z,99361.01
2018-01-21T03:10:02.121Z,99362.77
2018-01-21T03:12:32.087Z,99369.01
2018-01-21T03:15:01.305Z,99375.32
2018-01-21T03:17:30.493Z,99390.58
2018-01-21T03:20:01.225Z,99389.18
2018-01-21T03:22:31.906Z,99396.19
2018-01-21T03:25:01.927Z,99396.39
2018-01-21T03:27:31.881Z,99411.16
2018-01-21T03:30:01.103Z,99419.72
2018-01-21T03:32:30.340Z,99412.66
2018-01-21T03:34:59.550Z,99421.36
2018-01-21T03:37:28.795Z,99425.06
2018-01-21T03:39:58.047Z,99426.48
2018-01-21T03:42:28.042Z,99433.30
2018-01-21T03:44:58.041Z,99430.09
2018-01-21T03:47:28.014Z,99438.69
2018-01-21T03:49:57.219Z,99446.28
2018-01-21T03:52:26.465Z,99442.39
2018-01-21T03:54:56.541Z,99448.16
2018-01-21T03:57:25.754Z,99458.05
2018-01-21T03:59:54.999Z,99462.02
2018-01-21T04:02:24.412Z,99467.60
2018-01-21T04:04:53.613Z,99473.05
2018-01-21T04:07:22.848Z,99475.69
2018-01-21T04:09:52.850Z,99479.52
2018-01-21T04:12:22.086Z,99483.84
2018-01-21T04:14:52.155Z,99486.67
2018-01-21T04:17:21.369Z,99508.08
2018-01-21T04:19:50.746Z,99503.95
2018-01-21T04:22:19.945Z,99508.23
2018-01-21T04:24:49.146Z,99520.19
2018-01-21T04:27:18.381Z,99525.66
2018-01-21T04:29:47.570Z,99537.69
2018-01-21T04:32:16.796Z,99541.61
2018-01-21T04:34:46.825Z,99547.86
2018-01-21T04:37:16.075Z,99547.03
2018-01-21T04:39:45.324Z,99548.95
2018-01-21T04:42:14.630Z,99551.95
2018-01-21T04:44:43.849Z,99563.33
2018-01-21T04:47:13.162Z,99569.69
2018-01-21T04:49:42.354Z,99565.89
2018-01-21T04:52:11.560Z,99567.09
2018-01-21T04:54:40.807Z,99575.45
2018-01-21T04:57:10.926Z,99581.66
2018-01-21T04:59:40.150Z,99591.77
2018-01-21T05:02:09.394Z,99584.52
2018-01-21T05:04:38.668Z,99587.52
2018-01-21T05:07:08.003Z,99591.79
2018-01-21T05:09:37.986Z,99594.72
2018-01-21T05:12:07.189Z,99594.72
2018-01-21T05:14:36.533Z,99599.48
2018-01-21T05:17:06.624Z,99595.41
2018-01-21T05:19:35.854Z,99599.93
2018-01-21T05:22:05.083Z,99605.66
2018-01-21T05:24:34.303Z,99601.81
2018-01-21T05:27:04.333Z,99611.20
2018-01-21T05:29:34.373Z,99609.32
2018-01-21T05:32:03.605Z,99611.24
2018-01-21T05:34:33.014Z,99613.03
2018-01-21T05:37:02.293Z,99614.27
2018-01-21T05:39:31.488Z,99614.41
2018-01-21T05:42:00.780Z,99613.72
2018-01-21T05:44:30.014Z,99624.09
2018-01-21T05:46:59.246Z,99627.53
2018-01-21T05:49:28.491Z,99624.70
2018-01-21T05:51:57.685Z,99627.86
2018-01-21T05:54:26.916Z,99636.05
2018-01-21T05:56:56.143Z,99640.47
2018-01-21T05:59:26.217Z,99652.39
2018-01-21T06:01:55.440Z,99648.27
2018-01-21T06:04:24.709Z,99659.24
2018-01-21T06:06:53.930Z,99671.45
2018-01-21T06:09:23.142Z,99677.07
2018-01-21T06:11:53.110Z,99675.30
2018-01-21T06:14:22.307Z,99684.24
2018-01-21T06:16:51.646Z,99689.28
2018-01-21T06:19:20.866Z,99693.02
2018-01-21T06:21:50.850Z,99700.62
2018-01-21T06:24:20.052Z,99706.17
2018-01-21T06:26:49.419Z,99706.06
2018-01-21T06:29:18.712Z,99709.89
2018-01-21T06:31:47.938Z,99720.62
2018-01-21T06:34:17.173Z,99727.26
2018-01-21T06:36:47.184Z,99734.36
2018-01-21T06:39:16.418Z,99735.27
2018-01-21T06:41:45.615Z,99745.12
2018-01-21T06:44:14.897Z,99750.63
2018-01-21T06:46:44.853Z,99746.31
2018-01-21T06:49:14.103Z,99753.42
2018-01-21T06:51:44.078Z,99760.70
2018-01-21T06:54:13.258Z,99767.17
2018-01-21T06:56:42.496Z,99772.10
2018-01-21T06:59:11.725Z,99774.50
2018-01-21T07:01:40.942Z,99783.69
2018-01-21T07:04:10.163Z,99786.11
2018-01-21T07:06:39.385Z,99791.30
2018-01-21T07:09:08.571Z,99803.08
2018-01-21T07:11:37.816Z,99799.83
2018-01-21T07:14:06.994Z,99807.56
2018-01-21T07:16:36.235Z,99806.73
2018-01-21T07:19:05.660Z,99809.95
2018-01-21T07:21:34.894Z,99822.25
2018-01-21T07:24:04.853Z,99823.05
2018-01-21T07:26:34.895Z,99819.57
2018-01-21T07:29:05.026Z,99834.33
2018-01-21T07:31:34.287Z,99836.75
2018-01-21T07:34:03.552Z,99837.01
2018-01-21T07:36:33.539Z,99838.80
2018-01-21T07:39:03.527Z,99852.62
2018-01-21T07:41:32.728Z,99857.81
2018-01-21T07:44:01.942Z,99867.86
2018-01-21T07:46:31.149Z,99874.45
2018-01-21T07:49:01.188Z,99882.76
2018-01-21T07:51:31.174Z,99879.39
2018-01-21T07:54:00.401Z,99887.95
2018-01-21T07:56:30.526Z,99892.89
2018-01-21T07:58:59.801Z,99898.12
2018-01-21T08:01:29.787Z,99902.66
2018-01-21T08:03:59.032Z,99911.80
2018-01-21T08:06:29.078Z,99915.79
2018-01-21T08:08:58.287Z,99918.47
2018-01-21T08:11:27.507Z,99924.37
2018-01-21T08:13:56.799Z,99924.92
2018-01-21T08:16:26.034Z,99935.26
2018-01-21T08:18:56.110Z,99941.42
2018-01-21T08:21:25.331Z,99940.88
2018-01-21T08:23:54.568Z,99942.34
2018-01-21T08:26:23.827Z,99948.13
2018-01-21T08:28:53.053Z,99954.53
2018-01-21T08:31:22.302Z,99955.62
2018-01-21T08:33:56.939Z,99957.99
2018-01-21T08:36:31.804Z,99967.03
2018-01-21T08:39:07.245Z,99971.17
2018-01-21T08:41:38.299Z,99975.30
2018-01-21T08:44:07.526Z,99980.69
2018-01-21T08:46:36.765Z,99985.82
2018-01-21T08:49:06.103Z,99989.98
2018-01-21T08:51:35.390Z,99984.50
2018-01-21T08:54:05.370Z,99981.67
2018-01-21T08:56:34.592Z,99997.23
2018-01-21T08:59:04.615Z,99994.93
2018-01-21T09:01:34.611Z,99998.53
2018-01-21T09:04:04.747Z,100003.74
2018-01-21T09:06:34.818Z,100000.23
2018-01-21T09:09:05.750Z,100005.31
2018-01-21T09:11:36.226Z,100007.58
2018-01-21T09:14:05.686Z,100011.95
2018-01-21T09:16:35.077Z,100016.52
2018-01-21T09:19:04.481Z,100021.44
2018-01-21T09:21:34.068Z,100020.07
2018-01-21T09:24:03.766Z,100026.87
2018-01-21T09:26:33.098Z,100032.33
2018-01-21T09:29:03.717Z,100035.39
2018-01-21T09:31:33.115Z,100043.31
2018-01-21T09:34:02.505Z,100037.94
2018-01-21T09:36:32.327Z,100046.80
2018-01-21T09:39:01.935Z,100052.97
2018-01-21T09:41:31.353Z,100058.73
2018-01-21T09:44:01.301Z,100065.88
2018-01-21T09:46:31.373Z,100060.66
2018-01-21T09:49:00.855Z,100068.59
2018-01-21T09:51:31.093Z,100069.42
2018-01-21T09:54:00.570Z,100068.56
2018-01-21T09:56:30.047Z,100069.70
2018-01-21T09:59:00.545Z,100081.67
2018-01-21T10:01:30.169Z,100076.05
2018-01-21T10:04:00.221Z,100076.47
2018-01-21T10:06:29.496Z,100079.38
2018-01-21T10:09:00.230Z,100075.10
2018-01-21T10:11:30.219Z,100084.31
2018-01-21T10:13:59.426Z,100085.80
2018-01-21T10:16:28.685Z,100095.34
2018-01-21T10:18:57.894Z,100091.97
2018-01-21T10:21:27.137Z,100094.52
2018-01-21T10:23:56.442Z,100099.66
2018-01-21T10:26:26.446Z,100109.69
2018-01-21T10:28:55.691Z,100110.47
2018-01-21T10:31:24.900Z,100120.41
2018-01-21T10:33:54.277Z,100121.56
2018-01-21T10:36:23.544Z,100128.47
2018-01-21T10:38:53.551Z,100126.34
2018-01-21T10:41:22.800Z,100120.95
2018-01-21T10:43:52.004Z,100134.36
2018-01-21T10:46:21.282Z,100137.42
2018-01-21T10:48:51.468Z,100143.20
2018-01-21T10:51:20.696Z,100144.00
2018-01-21T10:53:50.777Z,100153.76
2018-01-21T10:56:20.007Z,100159.77
2018-01-21T10:58:50.936Z,100155.59
2018-01-21T11:01:20.953Z,100161.11
2018-01-21T11:03:50.250Z,100164.37
2018-01-21T11:06:19.550Z,100166.50
2018-01-21T11:08:48.897Z,100161.55
2018-01-21T11:11:18.153Z,100152.50
2018-01-21T11:13:47.540Z,100163.11
2018-01-21T11:16:16.864Z,100161.77
2018-01-21T11:18:47.114Z,100159.02
2018-01-21T11:21:16.347Z,100155.15
2018-01-21T11:23:45.567Z,100152.30
2018-01-21T11:26:14.776Z,100154.56
2018-01-21T11:28:44.934Z,100154.79
2018-01-21T11:31:14.972Z,100160.33
2018-01-21T11:33:44.163Z,100162.03
2018-01-21T11:36:13.393Z,100160.50
2018-01-21T11:38:42.846Z,100157.72
2018-01-21T11:41:12.783Z,100163.44
2018-01-21T11:43:42.042Z,100158.29
2018-01-21T11:46:11.279Z,100155.68
2018-01-21T11:48:40.475Z,100149.41
2018-01-21T11:51:10.474Z,100158.75
2018-01-21T11:53:39.695Z,100158.75
2018-01-21T11:56:08.943Z,100153.08
2018-01-21T11:58:38.910Z,100148.58
2018-01-21T12:01:08.144Z,100154.90
2018-01-21T12:03:37.634Z,100152.97
2018-01-21T12:06:06.858Z,100152.89
2018-01-21T12:08:36.850Z,100161.91
2018-01-21T12:11:07.202Z,100159.08
2018-01-21T12:13:36.726Z,100159.69
2018-01-21T12:16:05.938Z,100169.52
2018-01-21T12:18:35.151Z,100175.29
2018-01-21T12:21:04.390Z,100183.33
2018-01-21T12:23:33.635Z,100186.64
2018-01-21T12:26:02.866Z,100182.12
2018-01-21T12:28:32.074Z,100179.63
2018-01-21T12:31:01.279Z,100179.09
2018-01-21T12:33:31.274Z,100176.63
2018-01-21T12:36:00.519Z,100190.17
2018-01-21T12:38:29.819Z,100180.16
2018-01-21T12:40:59.130Z,100193.33
2018-01-21T12:43:29.125Z,100197.00
2018-01-21T12:45:58.313Z,100207.38
2018-01-21T12:48:28.325Z,100204.61
2018-01-21T12:50:58.318Z,100199.52
2018-01-21T12:53:27.624Z,100188.02
2018-01-21T12:55:56.882Z,100193.47
2018-01-21T12:58:26.118Z,100190.89
2018-01-21T13:00:56.165Z,100187.27
2018-01-21T13:03:26.123Z,100194.66
2018-01-21T13:05:55.335Z,100194.42
2018-01-21T13:08:24.537Z,100191.48
2018-01-21T13:10:53.762Z,100187.02
2018-01-21T13:13:23.761Z,100200.59
2018-01-21T13:15:53.817Z,100203.48
2018-01-21T13:18:23.201Z,100208.08
2018-01-21T13:20:53.240Z,100214.33
2018-01-21T13:23:22.457Z,100225.93
2018-01-21T13:25:51.723Z,100224.99
2018-01-21T13:28:20.950Z,100225.17
2018-01-21T13:30:50.178Z,100224.32
2018-01-21T13:33:19.492Z,100227.90
2018-01-21T13:35:48.690Z,100225.36
2018-01-21T13:38:18.658Z,100228.23
2018-01-21T13:40:47.856Z,100225.94
2018-01-21T13:43:17.195Z,100222.27
2018-01-21T13:45:46.410Z,100225.61
2018-01-21T13:48:16.401Z,100229.14
2018-01-21T13:50:45.599Z,100237.66
2018-01-21T13:53:14.884Z,100240.14
2018-01-21T13:55:44.110Z,100242.88
2018-01-21T13:58:13.362Z,100249.02
2018-01-21T14:00:42.571Z,100249.67
2018-01-21T14:03:11.775Z,100253.50
2018-01-21T14:05:41.017Z,100255.72
2018-01-21T14:08:10.875Z,100257.20
2018-01-21T14:10:40.900Z,100265.10
2018-01-21T14:13:10.130Z,100265.90
2018-01-21T14:15:40.814Z,100261.56
2018-01-21T14:18:10.071Z,100271.61
2018-01-21T14:20:39.318Z,100268.73
2018-01-21T14:23:08.599Z,100272.77
2018-01-21T14:25:37.814Z,100273.27
2018-01-21T14:28:07.302Z,100285.36
2018-01-21T14:30:36.508Z,100280.22
2018-01-21T14:33:05.740Z,100275.08
2018-01-21T14:35:35.794Z,100280.33
2018-01-21T14:38:04.984Z,100273.23
2018-01-21T14:40:34.990Z,100282.67
2018-01-21T14:43:05.270Z,100282.02
2018-01-21T14:45:34.547Z,100281.06
2018-01-21T14:48:03.754Z,100277.42
2018-01-21T14:50:33.003Z,100277.52
2018-01-21T14:53:03.033Z,100284.41
2018-01-21T14:55:33.009Z,100279.61
2018-01-21T14:58:02.207Z,100279.84
2018-01-21T15:00:31.520Z,100280.42
2018-01-21T15:03:01.566Z,100288.80
2018-01-21T15:05:30.871Z,100288.91
2018-01-21T15:08:00.124Z,100279.92
2018-01-21T15:10:29.509Z,100290.47
2018-01-21T15:12:58.831Z,100292.36
2018-01-21T15:15:29.559Z,100296.91
2018-01-21T15:17:58.793Z,100291.27
2018-01-21T15:20:28.748Z,100292.08
2018-01-21T15:22:57.995Z,100288.73
2018-01-21T15:25:27.965Z,100281.88
2018-01-21T15:27:57.495Z,100272.20
2018-01-21T15:30:27.282Z,100275.33
2018-01-21T15:32:56.894Z,100275.19
2018-01-21T15:35:26.115Z,100274.06
2018-01-21T15:37:55.308Z,100274.31
2018-01-21T15:40:24.782Z,100263.80
2018-01-21T15:42:54.025Z,100262.92
2018-01-21T15:45:23.256Z,100257.32
2018-01-21T15:47:52.450Z,100255.72
2018-01-21T15:50:22.786Z,100247.17
2018-01-21T15:52:52.031Z,100251.38
2018-01-21T15:55:22.784Z,100258.25
2018-01-21T15:57:51.978Z,100255.59
2018-01-21T16:00:21.215Z,100251.77
2018-01-21T16:02:50.433Z,100261.81
2018-01-21T16:05:19.703Z,100257.63
2018-01-21T16:07:49.030Z,100248.38
2018-01-21T16:10:19.044Z,100253.59
2018-01-21T16:12:48.267Z,100251.55
2018-01-21T16:15:17.540Z,100249.33
2018-01-21T16:17:46.836Z,100249.22
2018-01-21T16:20:16.418Z,100246.12
2018-01-21T16:22:45.696Z,100248.30
2018-01-21T16:25:15.792Z,100250.08
2018-01-21T16:27:45.782Z,100243.89
2018-01-21T16:30:15.019Z,100245.04
2018-01-21T16:32:44.256Z,100250.70
2018-01-21T16:35:13.576Z,100244.70
2018-01-21T16:38:00.797Z,100240.25
2018-01-21T16:40:30.974Z,100223.26
2018-01-21T16:43:00.579Z,100225.83
2018-01-21T16:45:29.831Z,100220.61
2018-01-21T16:47:59.200Z,100211.78
2018-01-21T16:50:28.434Z,100219.33
2018-01-21T16:52:57.667Z,100218.52
2018-01-21T16:55:27.668Z,100209.66
2018-01-21T16:57:57.666Z,100218.26
2018-01-21T17:00:26.949Z,100204.96
2018-01-21T17:02:56.099Z,100205.93
2018-01-21T17:05:25.424Z,100209.44
2018-01-21T17:07:54.679Z,100219.30
2018-01-21T17:10:23.919Z,100219.42
2018-01-21T17:12:54.116Z,100216.48
2018-01-21T17:15:24.146Z,100218.39
2018-01-21T17:17:53.357Z,100221.77
2018-01-21T17:20:22.601Z,100217.22
2018-01-21T17:22:52.591Z,100220.47
2018-01-21T17:25:21.999Z,100224.23
2018-01-21T17:27:51.231Z,100223.60
2018-01-21T17:30:21.234Z,100219.30
2018-01-21T17:32:50.458Z,100221.20
2018-01-21T17:35:20.478Z,100218.80
2018-01-21T17:37:49.822Z,100225.54
2018-01-21T17:40:19.231Z,100223.92
2018-01-21T17:42:48.491Z,100221.10
2018-01-21T17:45:17.738Z,100231.18
2018-01-21T17:47:47.796Z,100223.95
2018-01-21T17:50:17.238Z,100217.50
2018-01-21T17:52:46.460Z,100213.36
2018-01-21T17:55:15.697Z,100212.41
2018-01-21T17:57:45.678Z,100215.66
2018-01-21T18:00:15.686Z,100223.97
2018-01-21T18:02:45.248Z,100225.73
2018-01-21T18:05:14.478Z,100224.80
2018-01-21T18:07:43.778Z,100227.60
2018-01-21T18:10:13.034Z,100228.14
2018-01-21T18:12:42.293Z,100237.15
2018-01-21T18:15:11.555Z,100234.06
2018-01-21T18:17:40.834Z,100232.32
2018-01-21T18:20:10.121Z,100232.44
2018-01-21T18:22:41.079Z,100234.88
2018-01-21T18:25:10.385Z,100221.19
2018-01-21T18:27:39.698Z,100212.20
2018-01-21T18:30:08.929Z,100214.09
2018-01-21T18:32:38.233Z,100206.98
2018-01-21T18:35:08.294Z,100210.06
2018-01-21T18:37:37.572Z,100194.23
2018-01-21T18:40:06.805Z,100203.22
2018-01-21T18:42:36.053Z,100199.07
2018-01-21T18:45:05.582Z,100184.99
2018-01-21T18:47:34.777Z,100175.48
2018-01-21T18:50:04.882Z,100172.94
2018-01-21T18:52:34.090Z,100171.86
2018-01-21T18:55:04.152Z,100163.55
2018-01-21T18:57:33.325Z,100146.92
2018-01-21T19:00:02.609Z,100145.45
2018-01-21T19:02:31.833Z,100149.88
2018-01-21T19:05:01.086Z,100158.30
2018-01-21T19:07:31.164Z,100160.60
2018-01-21T19:10:00.381Z,100160.32
2018-01-21T19:12:29.743Z,100162.36
2018-01-21T19:14:59.009Z,100157.25
2018-01-21T19:17:29.012Z,100162.23
2018-01-21T19:19:59.093Z,100146.66
2018-01-21T19:22:28.330Z,100167.98
2018-01-21T19:24:57.643Z,100170.81
2018-01-21T19:27:26.887Z,100154.98
2018-01-21T19:29:56.203Z,100160.33
2018-01-21T19:32:27.047Z,100152.97
2018-01-21T19:34:56.469Z,100134.73
2018-01-21T19:37:25.917Z,100135.41
2018-01-21T19:40:00.752Z,100125.09
2018-01-21T19:42:43.997Z,100127.50
2018-01-21T19:45:13.035Z,100127.48
2018-01-21T19:47:42.286Z,100111.29
2018-01-21T19:50:11.587Z,100107.39
2018-01-21T19:52:42.412Z,100108.05
2018-01-21T19:55:11.744Z,100109.26
2018-01-21T19:57:41.858Z,100104.59
2018-01-21T20:00:11.160Z,100103.78
2018-01-21T20:02:40.404Z,100096.68
2018-01-21T20:05:09.654Z,100092.13
2018-01-21T20:07:39.018Z,100088.48
2018-01-21T20:10:08.257Z,100079.53
2018-01-21T20:12:39.848Z,100074.02
2018-01-21T20:15:09.161Z,100060.47
2018-01-21T20:17:38.668Z,100068.39
2018-01-21T20:20:08.106Z,100081.80
2018-01-21T20:22:38.186Z,100078.30
2018-01-21T20:25:07.426Z,100080.72
2018-01-21T20:27:36.740Z,100088.77
2018-01-21T20:30:06.835Z,100085.94
2018-01-21T20:32:36.049Z,100079.38
2018-01-21T20:35:05.491Z,100079.11
2018-01-21T20:37:34.856Z,100065.97
2018-01-21T20:40:04.904Z,100072.29
2018-01-21T20:42:35.045Z,100060.07
2018-01-21T20:45:04.291Z,100051.23
2018-01-21T20:47:34.346Z,100032.19
2018-01-21T20:50:03.543Z,100034.22
2018-01-21T20:52:38.380Z,100024.95
2018-01-21T20:55:07.650Z,100017.45
2018-01-21T20:57:37.089Z,100020.67
2018-01-21T21:00:06.326Z,100025.88
2018-01-21T21:02:36.340Z,100033.11
2018-01-21T21:05:05.619Z,100030.02
2018-01-21T21:07:34.930Z,100028.13
2018-01-21T21:10:04.159Z,100017.27
2018-01-21T21:12:34.142Z,100006.75
2018-01-21T21:15:03.382Z,99998.05
2018-01-21T21:17:32.622Z,99991.05
2018-01-21T21:20:01.869Z,99989.81
2018-01-21T21:22:31.958Z,99980.14
2018-01-21T21:25:01.242Z,99976.39
2018-01-21T21:27:30.482Z,99973.17
2018-01-21T21:29:59.751Z,99969.39
2018-01-21T21:32:28.955Z,99963.50
2018-01-21T21:34:58.166Z,99969.10
2018-01-21T21:37:28.180Z,99970.69
2018-01-21T21:39:58.213Z,99957.81
2018-01-21T21:42:28.169Z,99952.73
2018-01-21T21:44:57.570Z,99948.82
2018-01-21T21:47:26.812Z,99944.20
2018-01-21T21:49:56.869Z,99946.88
2018-01-21T21:52:26.322Z,99956.13
2018-01-21T21:54:55.755Z,99951.71
2018-01-21T21:57:25.901Z,99933.84
2018-01-21T21:59:55.179Z,99919.33
2018-01-21T22:02:24.460Z,99915.73
2018-01-21T22:04:54.418Z,99918.45
2018-01-21T22:07:23.749Z,99918.02
2018-01-21T22:09:52.949Z,99911.31
2018-01-21T22:12:22.182Z,99911.42
2018-01-21T22:14:51.444Z,99899.43
2018-01-21T22:17:22.221Z,99884.27
2018-01-21T22:19:51.462Z,99876.78
2018-01-21T22:22:20.688Z,99891.41
2018-01-21T22:24:50.684Z,99885.32
2018-01-21T22:27:20.015Z,99868.81
2018-01-21T22:29:49.486Z,99869.61
2018-01-21T22:32:18.706Z,99863.45
2018-01-21T22:34:48.074Z,99854.52
2018-01-21T22:37:17.294Z,99847.05
2018-01-21T22:39:46.498Z,99846.18
2018-01-21T22:42:15.826Z,99835.84
2018-01-21T22:44:45.023Z,99827.56
2018-01-21T22:47:14.280Z,99821.95
2018-01-21T22:49:43.524Z,99821.77
2018-01-21T22:52:12.720Z,99808.64
2018-01-21T22:54:42.683Z,99816.40
2018-01-21T22:57:11.989Z,99804.14
2018-01-21T22:59:41.225Z,99796.13
2018-01-21T23:02:11.219Z,99803.41
2018-01-21T23:04:40.435Z,99806.72
2018-01-21T23:07:09.672Z,99808.52
2018-01-21T23:09:38.872Z,99790.35
2018-01-21T23:12:08.303Z,99799.46
2018-01-21T23:14:37.503Z,99793.26
2018-01-21T23:17:06.731Z,99797.28
2018-01-21T23:19:36.769Z,99804.21
2018-01-21T23:22:06.034Z,99796.01
2018-01-21T23:24:36.054Z,99797.02
2018-01-21T23:27:06.066Z,99782.17
2018-01-21T23:29:36.069Z,99779.34
2018-01-21T23:32:06.142Z,99776.16
2018-01-21T23:34:35.358Z,99768.61
2018-01-21T23:37:04.565Z,99782.67
2018-01-21T23:39:33.785Z,99772.48
2018-01-21T23:42:03.194Z,99771.97
2018-01-21T23:44:32.365Z,99762.98
2018-01-21T23:47:03.117Z,99761.34
2018-01-21T23:49:32.364Z,99764.36
2018-01-21T23:52:01.574Z,99751.23
2018-01-21T23:54:31.586Z,99735.52
2018-01-21T23:57:00.781Z,99726.22
2018-01-21T23:59:30.848Z,99713.59
